Johannesburg, MI

3:27 PM EST on January 28, 2015 (GMT -0500)
Lake Louise | Change Station
CLOSE
Current Station
Personal Weather Station
Location: Johannesburg, MI
Elevation: 1358 ft
Nearby Weather Stations

Elev 1358 ft 44.98 °N, 84.49 °W | Updated 9 minutes ago

Partly Cloudy
Partly Cloudy
34.3 °F
Feels Like 34 °F
N
0.0
Wind Variable Wind from SSW

Today
High -- | Low -- °F
--% Chance of Precip.
Yesterday
High -- | Low -- °F
Precip. -- in
8:02 AM 5:39 PM
Waxing Gibbous, 67% visible
Pressure 30.21 in
Visibility 10.0 miles
Clouds Clear
Windchill 34 °F
Dew Point 11 °F
Humidity 37%
Rainfall 0.00 in
Snow Depth Not available.
UV 2 out of 12
Pollen .10 out of 12
Air Quality Not available.
Flu Activity Not available.
METAR KGLR 281953Z AUTO 17008KT 10SM CLR M03/M14 A3012 RMK AO2 SLP229 T10281139

More Conditions Fewer Conditions

Pressure 30.21 in
Visibility 10.0 miles
Clouds Clear
Windchill 34 °F
Dew Point 11 °F
Humidity 37%
Rainfall 0.00 in
Snow Depth Not available.
UV 2 out of 12
Pollen .10 out of 12
Air Quality Not available.
Flu Activity Not available.
METAR KGLR 281953Z AUTO 17008KT 10SM CLR M03/M14 A3012 RMK AO2 SLP229 T10281139

More Conditions Fewer Conditions

Nowcast | as of 3:00 PM EST on January 28, 2015

At 4 PM...mostly cloudy. Temperature 27. South winds 7 mph. At 6 PM...mostly cloudy. Temperature 25. South winds 6 mph. At 8 PM...mostly cloudy. Temperature 23. South winds 6 mph. At 10 PM...mostly cloudy. Temperature 22. South winds 8 mph.

×

10-Day Weather Forecast

Almanac

Astronomy

Jan. 28, 2015 Rise Set
Actual Time
Civil Twilight
Nautical Twilight
Astronomical Twilight
Moon
Length of Visible Light
Length of Day
Tomorrow will be .
, % of the Moon is Illuminated

Today's Extremes

State Highs State Lows

Community

WunderPhotos

Upload Photos

1,791,251 photos uploaded!

WunderBlogs® & News

Nearby

Air Quality

  Air Quality AQ Index Pollutant
Not available.

Snow Depth

Station Depth Elevation

Earthquake Activity

City Distance Mag. Time & Date
Minimum magnitude displayed is 2.5.

Coastal Water Temperatures

Place Temperature

Nearby Weather Stations